sensor_id;sensor_type;location;lat;lon;timestamp;pressure;altitude;pressure_sealevel;temperature;humidity
84380;BME280;74571;52.514;13.468;2024-02-26T00:00:45;99924.50;;;4.22;84.81
84380;BME280;74571;52.514;13.468;2024-02-26T00:03:11;99930.25;;;4.26;84.55
84380;BME280;74571;52.514;13.468;2024-02-26T00:05:39;99921.88;;;4.14;85.28
84380;BME280;74571;52.514;13.468;2024-02-26T00:08:05;99922.69;;;4.15;84.57
84380;BME280;74571;52.514;13.468;2024-02-26T00:10:30;99934.28;;;4.14;85.38
84380;BME280;74571;52.514;13.468;2024-02-26T00:12:55;99931.34;;;4.09;85.55
84380;BME280;74571;52.514;13.468;2024-02-26T00:15:21;99920.59;;;4.02;85.56
84380;BME280;74571;52.514;13.468;2024-02-26T00:17:46;99927.53;;;4.03;85.96
84380;BME280;74571;52.514;13.468;2024-02-26T00:20:11;99915.63;;;3.99;85.96
84380;BME280;74571;52.514;13.468;2024-02-26T00:22:37;99907.53;;;4.09;85.85
84380;BME280;74571;52.514;13.468;2024-02-26T00:25:02;99912.50;;;4.04;85.35
84380;BME280;74571;52.514;13.468;2024-02-26T00:27:28;99906.00;;;4.14;86.02
84380;BME280;74571;52.514;13.468;2024-02-26T00:29:53;99914.56;;;4.25;85.15
84380;BME280;74571;52.514;13.468;2024-02-26T00:32:19;99915.34;;;4.33;84.47
84380;BME280;74571;52.514;13.468;2024-02-26T00:34:44;99910.00;;;4.41;84.07
84380;BME280;74571;52.514;13.468;2024-02-26T00:37:09;99914.66;;;4.39;84.70
84380;BME280;74571;52.514;13.468;2024-02-26T00:39:34;99904.97;;;4.23;85.09
84380;BME280;74571;52.514;13.468;2024-02-26T00:42:00;99916.75;;;4.13;85.55
84380;BME280;74571;52.514;13.468;2024-02-26T00:44:25;99910.19;;;4.01;85.76
84380;BME280;74571;52.514;13.468;2024-02-26T00:46:50;99911.34;;;3.98;86.32
84380;BME280;74571;52.514;13.468;2024-02-26T00:49:16;99902.41;;;3.99;86.52
84380;BME280;74571;52.514;13.468;2024-02-26T00:51:41;99907.69;;;3.99;86.78
84380;BME280;74571;52.514;13.468;2024-02-26T00:54:06;99896.47;;;3.97;86.87
84380;BME280;74571;52.514;13.468;2024-02-26T00:56:31;99899.28;;;3.96;86.42
84380;BME280;74571;52.514;13.468;2024-02-26T00:58:57;99896.63;;;3.96;86.74
84380;BME280;74571;52.514;13.468;2024-02-26T01:01:22;99891.03;;;3.91;86.78
84380;BME280;74571;52.514;13.468;2024-02-26T01:03:47;99895.34;;;3.83;86.98
84380;BME280;74571;52.514;13.468;2024-02-26T01:06:12;99886.44;;;3.76;87.39
84380;BME280;74571;52.514;13.468;2024-02-26T01:08:38;99891.91;;;3.75;88.06
84380;BME280;74571;52.514;13.468;2024-02-26T01:11:04;99888.44;;;3.74;87.96
84380;BME280;74571;52.514;13.468;2024-02-26T01:13:29;99894.06;;;3.71;88.08
84380;BME280;74571;52.514;13.468;2024-02-26T01:15:54;99891.91;;;3.67;87.97
84380;BME280;74571;52.514;13.468;2024-02-26T01:18:20;99884.84;;;3.59;88.27
84380;BME280;74571;52.514;13.468;2024-02-26T01:20:45;99898.72;;;3.53;88.84
84380;BME280;74571;52.514;13.468;2024-02-26T01:23:12;99895.28;;;3.44;88.69
84380;BME280;74571;52.514;13.468;2024-02-26T01:25:37;99896.28;;;3.43;88.85
84380;BME280;74571;52.514;13.468;2024-02-26T01:28:04;99900.06;;;3.33;89.43
84380;BME280;74571;52.514;13.468;2024-02-26T01:30:30;99889.34;;;3.26;89.74
84380;BME280;74571;52.514;13.468;2024-02-26T01:32:55;99892.81;;;3.27;89.79
84380;BME280;74571;52.514;13.468;2024-02-26T01:35:20;99895.75;;;3.32;89.87
84380;BME280;74571;52.514;13.468;2024-02-26T01:37:46;99896.28;;;3.27;89.94
84380;BME280;74571;52.514;13.468;2024-02-26T01:40:12;99881.72;;;3.31;89.82
84380;BME280;74571;52.514;13.468;2024-02-26T01:42:40;99887.19;;;3.38;89.27
84380;BME280;74571;52.514;13.468;2024-02-26T01:45:15;99881.38;;;3.50;88.91
84380;BME280;74571;52.514;13.468;2024-02-26T01:47:46;99877.25;;;3.56;88.42
84380;BME280;74571;52.514;13.468;2024-02-26T01:50:11;99884.19;;;3.57;88.54
84380;BME280;74571;52.514;13.468;2024-02-26T01:52:37;99878.88;;;3.57;88.10
84380;BME280;74571;52.514;13.468;2024-02-26T01:55:02;99883.53;;;3.55;88.05
84380;BME280;74571;52.514;13.468;2024-02-26T01:57:28;99890.78;;;3.53;87.95
84380;BME280;74571;52.514;13.468;2024-02-26T01:59:53;99883.84;;;3.52;88.17
84380;BME280;74571;52.514;13.468;2024-02-26T02:02:19;99885.81;;;3.50;88.01
84380;BME280;74571;52.514;13.468;2024-02-26T02:04:44;99894.75;;;3.49;87.87
84380;BME280;74571;52.514;13.468;2024-02-26T02:07:09;99890.16;;;3.43;87.66
84380;BME280;74571;52.514;13.468;2024-02-26T02:09:35;99889.50;;;3.41;87.99
84380;BME280;74571;52.514;13.468;2024-02-26T02:12:00;99888.66;;;3.40;88.12
84380;BME280;74571;52.514;13.468;2024-02-26T02:14:26;99890.47;;;3.40;88.00
84380;BME280;74571;52.514;13.468;2024-02-26T02:16:51;99897.25;;;3.34;88.15
84380;BME280;74571;52.514;13.468;2024-02-26T02:19:16;99897.75;;;3.38;87.70
84380;BME280;74571;52.514;13.468;2024-02-26T02:21:41;99891.97;;;3.34;87.93
84380;BME280;74571;52.514;13.468;2024-02-26T02:24:07;99889.50;;;3.33;87.77
84380;BME280;74571;52.514;13.468;2024-02-26T02:26:32;99892.63;;;3.44;87.67
84380;BME280;74571;52.514;13.468;2024-02-26T02:28:58;99890.66;;;3.38;87.41
84380;BME280;74571;52.514;13.468;2024-02-26T02:31:24;99889.81;;;3.38;88.27
84380;BME280;74571;52.514;13.468;2024-02-26T02:33:49;99894.78;;;3.41;87.95
84380;BME280;74571;52.514;13.468;2024-02-26T02:36:14;99887.84;;;3.32;88.12
84380;BME280;74571;52.514;13.468;2024-02-26T02:38:48;99885.84;;;3.34;87.91
84380;BME280;74571;52.514;13.468;2024-02-26T02:41:15;99898.41;;;3.32;87.70
84380;BME280;74571;52.514;13.468;2024-02-26T02:43:40;99901.72;;;3.34;87.78
84380;BME280;74571;52.514;13.468;2024-02-26T02:46:05;99895.44;;;3.35;88.21
84380;BME280;74571;52.514;13.468;2024-02-26T02:48:31;99893.13;;;3.32;88.15
84380;BME280;74571;52.514;13.468;2024-02-26T02:50:56;99896.59;;;3.32;88.46
84380;BME280;74571;52.514;13.468;2024-02-26T02:53:21;99890.16;;;3.27;88.63
84380;BME280;74571;52.514;13.468;2024-02-26T02:55:46;99902.06;;;3.14;88.67
84380;BME280;74571;52.514;13.468;2024-02-26T02:58:12;99903.38;;;3.10;89.37
84380;BME280;74571;52.514;13.468;2024-02-26T03:00:37;99904.84;;;3.05;89.31
84380;BME280;74571;52.514;13.468;2024-02-26T03:03:02;99899.44;;;2.98;88.95
84380;BME280;74571;52.514;13.468;2024-02-26T03:05:27;99900.06;;;2.92;89.80
84380;BME280;74571;52.514;13.468;2024-02-26T03:07:53;99900.41;;;2.97;89.79
84380;BME280;74571;52.514;13.468;2024-02-26T03:10:18;99900.38;;;2.89;89.77
84380;BME280;74571;52.514;13.468;2024-02-26T03:12:43;99899.41;;;2.90;89.79
84380;BME280;74571;52.514;13.468;2024-02-26T03:15:09;99898.56;;;2.90;90.27
84380;BME280;74571;52.514;13.468;2024-02-26T03:17:36;99893.31;;;2.81;90.81
84380;BME280;74571;52.514;13.468;2024-02-26T03:20:01;99898.06;;;2.78;90.61
84380;BME280;74571;52.514;13.468;2024-02-26T03:22:28;99901.53;;;2.78;90.93
84380;BME280;74571;52.514;13.468;2024-02-26T03:24:53;99898.75;;;2.80;90.94
84380;BME280;74571;52.514;13.468;2024-02-26T03:27:19;99908.63;;;2.78;90.94
84380;BME280;74571;52.514;13.468;2024-02-26T03:29:44;99903.00;;;2.73;90.43
84380;BME280;74571;52.514;13.468;2024-02-26T03:32:09;99907.97;;;2.76;90.47
84380;BME280;74571;52.514;13.468;2024-02-26T03:34:35;99907.50;;;2.80;90.64
84380;BME280;74571;52.514;13.468;2024-02-26T03:37:00;99898.22;;;2.76;90.73
84380;BME280;74571;52.514;13.468;2024-02-26T03:39:26;99889.97;;;2.71;91.12
84380;BME280;74571;52.514;13.468;2024-02-26T03:41:51;99899.38;;;2.74;90.69
84380;BME280;74571;52.514;13.468;2024-02-26T03:44:17;99899.88;;;2.77;91.03
84380;BME280;74571;52.514;13.468;2024-02-26T03:46:42;99911.09;;;2.71;91.21
84380;BME280;74571;52.514;13.468;2024-02-26T03:49:08;99906.63;;;2.72;90.69
84380;BME280;74571;52.514;13.468;2024-02-26T03:51:33;99911.91;;;2.72;91.02
84380;BME280;74571;52.514;13.468;2024-02-26T03:53:58;99903.00;;;2.73;91.08
84380;BME280;74571;52.514;13.468;2024-02-26T03:56:24;99904.50;;;2.67;90.88
84380;BME280;74571;52.514;13.468;2024-02-26T03:58:52;99899.38;;;2.66;91.27
84380;BME280;74571;52.514;13.468;2024-02-26T04:01:18;99900.38;;;2.65;90.72
84380;BME280;74571;52.514;13.468;2024-02-26T04:03:43;99909.44;;;2.62;90.96
84380;BME280;74571;52.514;13.468;2024-02-26T04:06:09;99905.63;;;2.57;90.63
84380;BME280;74571;52.514;13.468;2024-02-26T04:08:35;99904.47;;;2.59;91.14
84380;BME280;74571;52.514;13.468;2024-02-26T04:11:00;99898.72;;;2.64;91.11
84380;BME280;74571;52.514;13.468;2024-02-26T04:13:26;99903.16;;;2.63;91.88
84380;BME280;74571;52.514;13.468;2024-02-26T04:15:51;99913.38;;;2.58;91.14
84380;BME280;74571;52.514;13.468;2024-02-26T04:18:16;99918.50;;;2.52;91.32
84380;BME280;74571;52.514;13.468;2024-02-26T04:20:42;99926.72;;;2.49;91.46
84380;BME280;74571;52.514;13.468;2024-02-26T04:23:07;99935.13;;;2.52;91.92
84380;BME280;74571;52.514;13.468;2024-02-26T04:25:33;99923.78;;;2.52;91.67
84380;BME280;74571;52.514;13.468;2024-02-26T04:27:58;99928.75;;;2.63;91.52
84380;BME280;74571;52.514;13.468;2024-02-26T04:30:23;99924.81;;;2.67;91.26
84380;BME280;74571;52.514;13.468;2024-02-26T04:32:49;99928.91;;;2.69;91.12
84380;BME280;74571;52.514;13.468;2024-02-26T04:35:14;99935.03;;;2.70;90.37
84380;BME280;74571;52.514;13.468;2024-02-26T04:37:39;99936.00;;;2.69;91.01
84380;BME280;74571;52.514;13.468;2024-02-26T04:40:05;99933.50;;;2.59;90.62
84380;BME280;74571;52.514;13.468;2024-02-26T04:42:30;99947.69;;;2.58;90.83
84380;BME280;74571;52.514;13.468;2024-02-26T04:44:56;99951.63;;;2.54;91.62
84380;BME280;74571;52.514;13.468;2024-02-26T04:47:21;99958.09;;;2.52;91.23
84380;BME280;74571;52.514;13.468;2024-02-26T04:49:48;99962.34;;;2.53;91.13
84380;BME280;74571;52.514;13.468;2024-02-26T04:52:14;99968.66;;;2.60;90.86
84380;BME280;74571;52.514;13.468;2024-02-26T04:54:42;99965.88;;;2.61;91.08
84380;BME280;74571;52.514;13.468;2024-02-26T04:57:07;99970.69;;;2.66;90.64
84380;BME280;74571;52.514;13.468;2024-02-26T04:59:32;99961.25;;;2.63;90.84
84380;BME280;74571;52.514;13.468;2024-02-26T05:01:58;99958.47;;;2.65;90.65
84380;BME280;74571;52.514;13.468;2024-02-26T05:04:23;99958.63;;;2.63;90.60
84380;BME280;74571;52.514;13.468;2024-02-26T05:06:48;99954.31;;;2.62;90.75
84380;BME280;74571;52.514;13.468;2024-02-26T05:09:13;99961.09;;;2.65;91.09
84380;BME280;74571;52.514;13.468;2024-02-26T05:11:39;99958.78;;;2.62;90.71
84380;BME280;74571;52.514;13.468;2024-02-26T05:14:04;99966.22;;;2.66;90.87
84380;BME280;74571;52.514;13.468;2024-02-26T05:16:29;99965.72;;;2.63;90.40
84380;BME280;74571;52.514;13.468;2024-02-26T05:18:56;99966.34;;;2.57;91.05
84380;BME280;74571;52.514;13.468;2024-02-26T05:21:21;99972.44;;;2.57;91.25
84380;BME280;74571;52.514;13.468;2024-02-26T05:23:46;99974.63;;;2.62;91.39
84380;BME280;74571;52.514;13.468;2024-02-26T05:26:19;99983.38;;;2.62;90.97
84380;BME280;74571;52.514;13.468;2024-02-26T05:28:44;99983.84;;;2.58;90.58
84380;BME280;74571;52.514;13.468;2024-02-26T05:31:12;99981.50;;;2.55;91.47
84380;BME280;74571;52.514;13.468;2024-02-26T05:33:38;99980.84;;;2.53;91.08
84380;BME280;74571;52.514;13.468;2024-02-26T05:36:03;99985.28;;;2.52;91.51
84380;BME280;74571;52.514;13.468;2024-02-26T05:38:30;99983.16;;;2.56;91.17
84380;BME280;74571;52.514;13.468;2024-02-26T05:40:56;99984.81;;;2.49;91.59
84380;BME280;74571;52.514;13.468;2024-02-26T05:43:21;99981.66;;;2.53;91.32
84380;BME280;74571;52.514;13.468;2024-02-26T05:45:47;99990.56;;;2.52;91.43
84380;BME280;74571;52.514;13.468;2024-02-26T05:48:12;99994.56;;;2.56;91.36
84380;BME280;74571;52.514;13.468;2024-02-26T05:50:37;99996.06;;;2.59;91.63
84380;BME280;74571;52.514;13.468;2024-02-26T05:53:03;99999.38;;;2.61;90.73
84380;BME280;74571;52.514;13.468;2024-02-26T05:55:28;99999.69;;;2.58;91.44
84380;BME280;74571;52.514;13.468;2024-02-26T05:57:53;100007.28;;;2.61;91.27
84380;BME280;74571;52.514;13.468;2024-02-26T06:00:19;100000.66;;;2.57;91.14
84380;BME280;74571;52.514;13.468;2024-02-26T06:02:44;100002.31;;;2.58;91.04
84380;BME280;74571;52.514;13.468;2024-02-26T06:05:09;100010.91;;;2.60;90.85
84380;BME280;74571;52.514;13.468;2024-02-26T06:07:34;100011.91;;;2.59;91.20
84380;BME280;74571;52.514;13.468;2024-02-26T06:10:00;100006.63;;;2.59;90.31
84380;BME280;74571;52.514;13.468;2024-02-26T06:12:25;100009.94;;;2.61;91.00
84380;BME280;74571;52.514;13.468;2024-02-26T06:14:53;100009.78;;;2.62;91.22
84380;BME280;74571;52.514;13.468;2024-02-26T06:17:18;100018.69;;;2.69;90.85
84380;BME280;74571;52.514;13.468;2024-02-26T06:19:43;100023.97;;;2.69;91.06
84380;BME280;74571;52.514;13.468;2024-02-26T06:22:09;100016.22;;;2.68;90.71
84380;BME280;74571;52.514;13.468;2024-02-26T06:24:34;100017.91;;;2.77;90.71
84380;BME280;74571;52.514;13.468;2024-02-26T06:26:59;100021.53;;;2.84;90.75
84380;BME280;74571;52.514;13.468;2024-02-26T06:29:24;100017.91;;;2.85;90.05
84380;BME280;74571;52.514;13.468;2024-02-26T06:31:50;100015.94;;;2.87;90.65
84380;BME280;74571;52.514;13.468;2024-02-26T06:34:15;100019.41;;;2.88;90.27
84380;BME280;74571;52.514;13.468;2024-02-26T06:36:41;100022.59;;;2.99;90.00
84380;BME280;74571;52.514;13.468;2024-02-26T06:39:06;100024.25;;;3.00;89.76
84380;BME280;74571;52.514;13.468;2024-02-26T06:41:31;100026.06;;;3.00;89.98
84380;BME280;74571;52.514;13.468;2024-02-26T06:43:57;100026.75;;;3.10;89.24
84380;BME280;74571;52.514;13.468;2024-02-26T06:46:22;100036.22;;;3.29;88.53
84380;BME280;74571;52.514;13.468;2024-02-26T06:48:49;100044.81;;;3.39;88.48
84380;BME280;74571;52.514;13.468;2024-02-26T06:51:14;100042.00;;;3.48;88.12
84380;BME280;74571;52.514;13.468;2024-02-26T06:53:39;100051.09;;;3.62;87.85
84380;BME280;74571;52.514;13.468;2024-02-26T06:56:05;100044.34;;;3.76;87.29
84380;BME280;74571;52.514;13.468;2024-02-26T06:58:30;100049.81;;;3.74;87.10
84380;BME280;74571;52.514;13.468;2024-02-26T07:00:55;100045.81;;;3.86;86.38
84380;BME280;74571;52.514;13.468;2024-02-26T07:03:21;100049.78;;;3.82;86.55
84380;BME280;74571;52.514;13.468;2024-02-26T07:05:48;100048.28;;;3.80;86.59
84380;BME280;74571;52.514;13.468;2024-02-26T07:08:16;100066.81;;;3.80;86.54
84380;BME280;74571;52.514;13.468;2024-02-26T07:10:41;100064.00;;;3.81;86.22
84380;BME280;74571;52.514;13.468;2024-02-26T07:13:07;100057.88;;;3.81;86.30
84380;BME280;74571;52.514;13.468;2024-02-26T07:15:32;100081.22;;;3.85;86.53
84380;BME280;74571;52.514;13.468;2024-02-26T07:17:58;100076.75;;;3.86;86.53
84380;BME280;74571;52.514;13.468;2024-02-26T07:20:28;100075.28;;;3.92;86.84
84380;BME280;74571;52.514;13.468;2024-02-26T07:22:53;100068.31;;;3.91;86.20
84380;BME280;74571;52.514;13.468;2024-02-26T07:25:18;100060.53;;;3.89;85.77
84380;BME280;74571;52.514;13.468;2024-02-26T07:27:43;100065.50;;;3.92;86.00
84380;BME280;74571;52.514;13.468;2024-02-26T07:30:09;100070.44;;;3.95;86.05
84380;BME280;74571;52.514;13.468;2024-02-26T07:32:35;100076.56;;;3.96;86.21
84380;BME280;74571;52.514;13.468;2024-02-26T07:35:00;100074.09;;;4.02;85.67
84380;BME280;74571;52.514;13.468;2024-02-26T07:37:25;100077.06;;;4.15;85.75
84380;BME280;74571;52.514;13.468;2024-02-26T07:39:50;100081.69;;;4.21;85.47
84380;BME280;74571;52.514;13.468;2024-02-26T07:42:16;100083.19;;;4.24;85.11
84380;BME280;74571;52.514;13.468;2024-02-26T07:44:41;100074.72;;;4.37;85.24
84380;BME280;74571;52.514;13.468;2024-02-26T07:47:11;100070.53;;;4.42;84.78
84380;BME280;74571;52.514;13.468;2024-02-26T07:49:36;100062.44;;;4.52;84.04
84380;BME280;74571;52.514;13.468;2024-02-26T07:52:01;100064.88;;;4.62;84.31
84380;BME280;74571;52.514;13.468;2024-02-26T07:54:29;100066.53;;;4.63;83.80
84380;BME280;74571;52.514;13.468;2024-02-26T07:56:54;100064.63;;;4.87;82.94
84380;BME280;74571;52.514;13.468;2024-02-26T07:59:20;100068.53;;;5.00;82.89
84380;BME280;74571;52.514;13.468;2024-02-26T08:01:49;100065.84;;;5.08;83.23
84380;BME280;74571;52.514;13.468;2024-02-26T08:04:14;100060.50;;;5.16;81.75
84380;BME280;74571;52.514;13.468;2024-02-26T08:06:40;100072.63;;;5.41;81.19
84380;BME280;74571;52.514;13.468;2024-02-26T08:09:10;100067.31;;;5.41;80.95
84380;BME280;74571;52.514;13.468;2024-02-26T08:11:38;100065.44;;;5.50;80.81
84380;BME280;74571;52.514;13.468;2024-02-26T08:14:05;100067.50;;;5.62;81.08
84380;BME280;74571;52.514;13.468;2024-02-26T08:16:31;100071.25;;;5.68;79.97
84380;BME280;74571;52.514;13.468;2024-02-26T08:18:56;100071.22;;;5.76;79.32
84380;BME280;74571;52.514;13.468;2024-02-26T08:21:21;100079.94;;;5.85;79.26
84380;BME280;74571;52.514;13.468;2024-02-26T08:23:46;100079.56;;;5.96;79.45
84380;BME280;74571;52.514;13.468;2024-02-26T08:26:12;100081.25;;;6.12;79.00
84380;BME280;74571;52.514;13.468;2024-02-26T08:28:37;100070.31;;;6.07;78.32
84380;BME280;74571;52.514;13.468;2024-02-26T08:31:03;100072.63;;;6.10;78.74
84380;BME280;74571;52.514;13.468;2024-02-26T08:33:28;100070.66;;;6.26;78.63
84380;BME280;74571;52.514;13.468;2024-02-26T08:35:54;100073.97;;;6.43;77.54
84380;BME280;74571;52.514;13.468;2024-02-26T08:38:19;100079.19;;;6.51;77.59
84380;BME280;74571;52.514;13.468;2024-02-26T08:40:44;100076.88;;;6.48;76.87
84380;BME280;74571;52.514;13.468;2024-02-26T08:43:11;100075.53;;;6.52;77.24
84380;BME280;74571;52.514;13.468;2024-02-26T08:45:36;100080.47;;;6.55;76.90
84380;BME280;74571;52.514;13.468;2024-02-26T08:48:02;100066.41;;;6.32;77.96
84380;BME280;74571;52.514;13.468;2024-02-26T08:50:30;100067.66;;;6.44;77.32
84380;BME280;74571;52.514;13.468;2024-02-26T08:52:56;100072.69;;;6.54;76.83
84380;BME280;74571;52.514;13.468;2024-02-26T08:55:21;100069.13;;;6.76;76.27
84380;BME280;74571;52.514;13.468;2024-02-26T08:57:47;100069.56;;;6.80;76.13
84380;BME280;74571;52.514;13.468;2024-02-26T09:00:12;100076.16;;;6.84;75.67
84380;BME280;74571;52.514;13.468;2024-02-26T09:02:38;100068.81;;;7.00;75.23
84380;BME280;74571;52.514;13.468;2024-02-26T09:05:16;100070.09;;;7.04;74.66
84380;BME280;74571;52.514;13.468;2024-02-26T09:07:42;100072.38;;;7.08;75.82
84380;BME280;74571;52.514;13.468;2024-02-26T09:10:07;100059.63;;;7.03;75.34
84380;BME280;74571;52.514;13.468;2024-02-26T09:12:36;100072.34;;;7.22;74.44
84380;BME280;74571;52.514;13.468;2024-02-26T09:15:02;100064.97;;;7.24;74.70
84380;BME280;74571;52.514;13.468;2024-02-26T09:17:30;100060.06;;;7.43;73.34
84380;BME280;74571;52.514;13.468;2024-02-26T09:19:55;100058.97;;;7.52;73.46
84380;BME280;74571;52.514;13.468;2024-02-26T09:22:21;100061.56;;;7.66;72.55
84380;BME280;74571;52.514;13.468;2024-02-26T09:24:46;100034.31;;;7.64;72.69
84380;BME280;74571;52.514;13.468;2024-02-26T09:27:14;100041.56;;;7.56;73.16
84380;BME280;74571;52.514;13.468;2024-02-26T09:29:39;100054.22;;;7.68;72.52
84380;BME280;74571;52.514;13.468;2024-02-26T09:32:07;100055.59;;;7.64;72.38
84380;BME280;74571;52.514;13.468;2024-02-26T09:34:32;100067.13;;;7.71;71.93
84380;BME280;74571;52.514;13.468;2024-02-26T09:37:01;100069.47;;;7.81;72.87
84380;BME280;74571;52.514;13.468;2024-02-26T09:39:26;100066.03;;;7.87;72.57
84380;BME280;74571;52.514;13.468;2024-02-26T09:41:53;100070.59;;;7.93;71.93
84380;BME280;74571;52.514;13.468;2024-02-26T09:44:20;100069.22;;;7.97;71.53
84380;BME280;74571;52.514;13.468;2024-02-26T09:46:47;100076.81;;;8.00;71.34
84380;BME280;74571;52.514;13.468;2024-02-26T09:49:15;100067.13;;;8.21;71.23
84380;BME280;74571;52.514;13.468;2024-02-26T09:51:40;100072.97;;;8.31;70.34
84380;BME280;74571;52.514;13.468;2024-02-26T09:54:07;100075.88;;;8.36;70.55
84380;BME280;74571;52.514;13.468;2024-02-26T09:56:34;100083.63;;;8.31;69.97
84380;BME280;74571;52.514;13.468;2024-02-26T09:59:01;100083.31;;;8.40;69.89
84380;BME280;74571;52.514;13.468;2024-02-26T10:04:00;100085.88;;;8.55;69.27
84380;BME280;74571;52.514;13.468;2024-02-26T10:06:26;100085.53;;;8.65;69.51
84380;BME280;74571;52.514;13.468;2024-02-26T10:08:53;100082.13;;;8.84;68.78
84380;BME280;74571;52.514;13.468;2024-02-26T10:11:26;100084.47;;;8.94;68.12
84380;BME280;74571;52.514;13.468;2024-02-26T10:14:19;100084.50;;;9.07;67.97
84380;BME280;74571;52.514;13.468;2024-02-26T10:17:16;100063.78;;;9.09;67.12
84380;BME280;74571;52.514;13.468;2024-02-26T10:19:49;100085.34;;;9.07;67.49
84380;BME280;74571;52.514;13.468;2024-02-26T10:22:16;100077.09;;;9.02;67.71
84380;BME280;74571;52.514;13.468;2024-02-26T10:24:46;100078.66;;;9.31;67.55
84380;BME280;74571;52.514;13.468;2024-02-26T10:27:15;100081.25;;;9.18;67.23
84380;BME280;74571;52.514;13.468;2024-02-26T10:29:40;100062.81;;;9.30;67.15
84380;BME280;74571;52.514;13.468;2024-02-26T10:32:08;100081.31;;;9.31;67.53
84380;BME280;74571;52.514;13.468;2024-02-26T10:34:35;100072.75;;;9.42;66.69
84380;BME280;74571;52.514;13.468;2024-02-26T10:37:01;100081.41;;;9.58;66.16
84380;BME280;74571;52.514;13.468;2024-02-26T10:39:26;100080.56;;;9.50;65.68
84380;BME280;74571;52.514;13.468;2024-02-26T10:41:52;100077.53;;;9.87;64.67
84380;BME280;74571;52.514;13.468;2024-02-26T10:44:18;100084.31;;;9.82;64.33
84380;BME280;74571;52.514;13.468;2024-02-26T10:46:52;100081.47;;;9.91;64.05
84380;BME280;74571;52.514;13.468;2024-02-26T10:49:17;100077.56;;;10.00;64.67
84380;BME280;74571;52.514;13.468;2024-02-26T10:51:52;100079.81;;;9.96;64.57
84380;BME280;74571;52.514;13.468;2024-02-26T10:54:24;100073.22;;;10.12;63.63
84380;BME280;74571;52.514;13.468;2024-02-26T10:56:51;100083.72;;;10.13;62.87
84380;BME280;74571;52.514;13.468;2024-02-26T10:59:17;100095.03;;;10.09;63.89
84380;BME280;74571;52.514;13.468;2024-02-26T11:01:48;100090.34;;;10.31;62.65
84380;BME280;74571;52.514;13.468;2024-02-26T11:04:13;100090.75;;;10.28;62.60
84380;BME280;74571;52.514;13.468;2024-02-26T11:06:40;100095.88;;;10.29;62.11
84380;BME280;74571;52.514;13.468;2024-02-26T11:09:06;100084.78;;;10.32;62.33
84380;BME280;74571;52.514;13.468;2024-02-26T11:11:33;100087.88;;;10.36;61.79
84380;BME280;74571;52.514;13.468;2024-02-26T11:14:08;100076.13;;;10.30;61.85
84380;BME280;74571;52.514;13.468;2024-02-26T11:16:45;100077.78;;;10.31;62.51
84380;BME280;74571;52.514;13.468;2024-02-26T11:19:11;100083.72;;;10.60;60.44
84380;BME280;74571;52.514;13.468;2024-02-26T11:24:09;100069.53;;;10.46;60.47
84380;BME280;74571;52.514;13.468;2024-02-26T11:26:40;100061.50;;;10.39;59.61
84380;BME280;74571;52.514;13.468;2024-02-26T11:29:46;100056.97;;;10.60;59.67
84380;BME280;74571;52.514;13.468;2024-02-26T11:32:15;100074.03;;;10.65;58.98
84380;BME280;74571;52.514;13.468;2024-02-26T11:34:42;100092.53;;;10.73;59.55
84380;BME280;74571;52.514;13.468;2024-02-26T11:37:14;100092.09;;;10.89;59.27
84380;BME280;74571;52.514;13.468;2024-02-26T11:39:43;100077.91;;;10.82;58.09
84380;BME280;74571;52.514;13.468;2024-02-26T11:42:14;100080.19;;;10.85;58.35
84380;BME280;74571;52.514;13.468;2024-02-26T11:44:39;100080.97;;;10.93;58.21
84380;BME280;74571;52.514;13.468;2024-02-26T11:47:13;100081.31;;;11.03;58.69
84380;BME280;74571;52.514;13.468;2024-02-26T11:49:39;100082.34;;;11.15;58.23
84380;BME280;74571;52.514;13.468;2024-02-26T11:52:08;100082.53;;;11.13;58.13
84380;BME280;74571;52.514;13.468;2024-02-26T11:57:25;100088.25;;;11.23;59.36
84380;BME280;74571;52.514;13.468;2024-02-26T11:59:52;100074.47;;;11.20;58.85
84380;BME280;74571;52.514;13.468;2024-02-26T12:02:40;100086.94;;;11.46;58.63
84380;BME280;74571;52.514;13.468;2024-02-26T12:07:34;100076.56;;;11.56;56.77
84380;BME280;74571;52.514;13.468;2024-02-26T12:10:26;100079.03;;;11.51;57.43
84380;BME280;74571;52.514;13.468;2024-02-26T12:13:00;100078.19;;;11.64;57.56
84380;BME280;74571;52.514;13.468;2024-02-26T12:15:36;100080.59;;;11.72;57.65
84380;BME280;74571;52.514;13.468;2024-02-26T12:18:03;100072.19;;;11.62;58.00
84380;BME280;74571;52.514;13.468;2024-02-26T12:20:28;100061.31;;;11.50;58.68
84380;BME280;74571;52.514;13.468;2024-02-26T12:22:54;100069.59;;;11.86;56.71
84380;BME280;74571;52.514;13.468;2024-02-26T12:25:24;100068.00;;;11.79;57.39
84380;BME280;74571;52.514;13.468;2024-02-26T12:27:51;100078.03;;;11.90;57.01
84380;BME280;74571;52.514;13.468;2024-02-26T12:30:16;100079.56;;;12.04;57.62
84380;BME280;74571;52.514;13.468;2024-02-26T12:32:42;100075.88;;;11.99;57.50
84380;BME280;74571;52.514;13.468;2024-02-26T12:35:07;100076.88;;;12.04;57.24
84380;BME280;74571;52.514;13.468;2024-02-26T12:37:33;100084.38;;;11.96;57.57
84380;BME280;74571;52.514;13.468;2024-02-26T12:39:58;100095.16;;;11.82;57.69
84380;BME280;74571;52.514;13.468;2024-02-26T12:42:24;100083.38;;;12.15;56.77
84380;BME280;74571;52.514;13.468;2024-02-26T12:44:50;100097.94;;;12.01;57.79
84380;BME280;74571;52.514;13.468;2024-02-26T12:47:16;100096.97;;;11.95;57.00
84380;BME280;74571;52.514;13.468;2024-02-26T12:49:43;100096.97;;;11.95;56.71
84380;BME280;74571;52.514;13.468;2024-02-26T12:52:11;100097.00;;;11.88;56.52
84380;BME280;74571;52.514;13.468;2024-02-26T12:54:38;100093.72;;;11.86;57.07
84380;BME280;74571;52.514;13.468;2024-02-26T12:57:05;100086.75;;;11.79;56.58
84380;BME280;74571;52.514;13.468;2024-02-26T12:59:32;100086.09;;;11.83;56.77